createdAt,value
2018-07-07T00:00:55.153Z,3.07
2018-07-07T00:04:58.820Z,2.07
2018-07-07T00:09:02.339Z,2.87
2018-07-07T00:13:05.884Z,2.70
2018-07-07T00:17:09.449Z,2.40
2018-07-07T00:21:13.215Z,2.30
2018-07-07T00:25:18.264Z,3.00
2018-07-07T00:29:22.001Z,2.33
2018-07-07T00:33:25.892Z,1.90
2018-07-07T00:37:29.639Z,2.90
2018-07-07T00:41:33.383Z,2.53
2018-07-07T00:45:37.333Z,3.00
2018-07-07T00:49:41.208Z,3.10
2018-07-07T00:53:44.887Z,2.67
2018-07-07T00:57:48.649Z,2.80
2018-07-07T01:01:52.601Z,3.03
2018-07-07T01:05:56.279Z,2.63
2018-07-07T01:10:01.604Z,3.10
2018-07-07T01:14:05.480Z,3.00
2018-07-07T01:18:09.563Z,2.90
2018-07-07T01:22:13.901Z,2.37
2018-07-07T01:26:17.596Z,2.67
2018-07-07T01:30:21.139Z,2.53
2018-07-07T01:34:24.938Z,2.60
2018-07-07T01:38:28.965Z,2.80
2018-07-07T01:42:32.864Z,2.90
2018-07-07T01:46:36.560Z,1.67
2018-07-07T01:50:40.152Z,1.67
2018-07-07T01:54:43.896Z,2.07
2018-07-07T01:58:47.784Z,1.10
2018-07-07T02:02:51.445Z,1.27
2018-07-07T02:06:55.208Z,1.70
2018-07-07T02:10:59.055Z,3.43
2018-07-07T02:15:02.736Z,4.10
2018-07-07T02:19:06.671Z,3.37
2018-07-07T02:23:10.199Z,4.30
2018-07-07T02:27:13.741Z,1.80
2018-07-07T02:31:19.042Z,2.60
2018-07-07T02:35:22.972Z,2.80
2018-07-07T02:39:26.712Z,2.07
2018-07-07T02:43:30.456Z,1.80
2018-07-07T02:47:34.324Z,1.30
2018-07-07T02:51:37.975Z,1.40
2018-07-07T02:55:41.499Z,1.30
2018-07-07T02:59:45.277Z,1.50
2018-07-07T03:03:48.938Z,1.90
2018-07-07T03:07:52.976Z,2.80
2018-07-07T03:11:56.841Z,3.57
2018-07-07T03:16:00.495Z,4.40
2018-07-07T03:20:04.019Z,3.00
2018-07-07T03:24:08.004Z,2.47
2018-07-07T03:28:11.896Z,2.10
2018-07-07T03:32:15.579Z,2.00
2018-07-07T03:36:19.319Z,1.97
2018-07-07T03:40:23.250Z,1.80
2018-07-07T03:44:26.843Z,3.20
2018-07-07T03:48:30.575Z,3.37
2018-07-07T03:52:34.228Z,2.70
2018-07-07T03:56:37.756Z,1.77
2018-07-07T04:00:41.330Z,2.00
2018-07-07T04:04:44.927Z,3.30
2018-07-07T04:08:48.470Z,2.90
2018-07-07T04:12:52.213Z,2.80
2018-07-07T04:16:55.863Z,1.80
2018-07-07T04:20:59.907Z,1.00
2018-07-07T04:25:03.440Z,1.57
2018-07-07T04:29:07.207Z,2.50
2018-07-07T04:33:10.871Z,3.30
2018-07-07T04:37:14.395Z,2.93
2018-07-07T04:41:17.927Z,3.37
2018-07-07T04:45:21.467Z,3.50
2018-07-07T04:49:25.242Z,3.70
2018-07-07T04:53:28.898Z,3.63
2018-07-07T04:57:32.575Z,4.60
2018-07-07T05:01:36.091Z,4.90
2018-07-07T05:05:42.970Z,4.43
2018-07-07T05:09:46.511Z,3.97
2018-07-07T05:13:50.044Z,3.80
2018-07-07T05:17:53.591Z,4.40
2018-07-07T05:21:57.230Z,3.23
2018-07-07T05:26:00.752Z,4.00
2018-07-07T05:30:04.431Z,3.10
2018-07-07T05:34:08.327Z,3.40
2018-07-07T05:38:12.192Z,3.47
2018-07-07T05:42:16.059Z,3.10
2018-07-07T05:46:19.896Z,3.90
2018-07-07T05:50:23.431Z,4.30
2018-07-07T05:54:27.171Z,3.53
2018-07-07T05:58:30.844Z,4.43
2018-07-07T06:02:34.593Z,4.20
2018-07-07T06:06:38.240Z,3.80
2018-07-07T06:10:41.772Z,4.00
2018-07-07T06:14:45.539Z,3.63
2018-07-07T06:18:49.420Z,3.30
2018-07-07T06:22:53.532Z,3.40
2018-07-07T06:26:57.091Z,3.60
2018-07-07T06:31:00.959Z,2.37
2018-07-07T06:35:04.503Z,2.40
2018-07-07T06:39:08.049Z,2.47
2018-07-07T06:43:11.569Z,2.37
2018-07-07T06:47:15.103Z,1.60
2018-07-07T06:51:18.940Z,1.87
2018-07-07T06:55:22.681Z,2.33
2018-07-07T06:59:26.325Z,1.50
2018-07-07T07:03:30.381Z,1.80
2018-07-07T07:07:33.975Z,2.20
2018-07-07T07:11:37.525Z,1.47
2018-07-07T07:15:42.843Z,2.00
2018-07-07T07:19:48.247Z,1.50
2018-07-07T07:23:54.096Z,1.57
2018-07-07T07:28:01.772Z,1.77
2018-07-07T07:32:05.385Z,2.07
2018-07-07T07:36:11.781Z,1.57
2018-07-07T07:40:16.375Z,1.70
2018-07-07T07:44:20.115Z,1.80
2018-07-07T07:48:27.258Z,1.77
2018-07-07T07:52:32.751Z,1.80
2018-07-07T07:56:36.435Z,2.03
2018-07-07T08:00:40.020Z,2.03
2018-07-07T08:04:43.621Z,1.83
2018-07-07T08:08:47.499Z,1.60
2018-07-07T08:12:52.996Z,1.50
2018-07-07T08:16:57.187Z,1.57
2018-07-07T08:21:00.936Z,1.83
2018-07-07T08:25:04.751Z,1.80
2018-07-07T08:29:08.271Z,1.03
2018-07-07T08:33:12.999Z,1.40
2018-07-07T08:37:16.704Z,1.10
2018-07-07T08:41:20.452Z,1.53
2018-07-07T08:45:24.124Z,1.57
2018-07-07T08:49:27.741Z,1.60
2018-07-07T08:53:31.187Z,1.47
2018-07-07T08:57:34.715Z,1.60
2018-07-07T09:01:38.267Z,1.17
2018-07-07T09:05:41.771Z,1.43
2018-07-07T09:09:45.508Z,1.23
2018-07-07T09:13:49.388Z,1.10
2018-07-07T09:17:53.092Z,1.10
2018-07-07T09:21:56.679Z,0.90
2018-07-07T09:26:00.504Z,1.40
2018-07-07T09:30:04.471Z,1.13
2018-07-07T09:34:08.002Z,1.17
2018-07-07T09:38:11.595Z,1.60
2018-07-07T09:42:15.238Z,1.50
2018-07-07T09:46:19.005Z,1.63
2018-07-07T09:50:22.928Z,1.20
2018-07-07T09:54:26.560Z,1.40
2018-07-07T09:58:30.099Z,1.97
2018-07-07T10:02:33.852Z,1.47
2018-07-07T10:06:38.584Z,1.87
2018-07-07T10:10:42.117Z,1.50
2018-07-07T10:14:45.653Z,1.57
2018-07-07T10:18:49.235Z,1.30
2018-07-07T10:22:52.759Z,1.63
2018-07-07T10:26:56.416Z,1.80
2018-07-07T10:31:00.180Z,2.30
2018-07-07T10:35:03.872Z,1.43
2018-07-07T10:39:07.587Z,1.87
2018-07-07T10:43:11.243Z,1.63
2018-07-07T10:47:14.859Z,2.23
2018-07-07T10:51:18.632Z,1.60
2018-07-07T10:55:22.793Z,1.60
2018-07-07T10:59:26.563Z,1.77
2018-07-07T11:03:30.127Z,1.90
2018-07-07T11:07:33.667Z,1.63
2018-07-07T11:11:37.213Z,1.60
2018-07-07T11:15:40.745Z,1.70
2018-07-07T11:19:44.299Z,1.97
2018-07-07T11:23:47.840Z,2.30
2018-07-07T11:27:51.380Z,2.70
2018-07-07T11:31:54.914Z,1.60
2018-07-07T11:35:58.651Z,1.60
2018-07-07T11:40:02.596Z,2.67
2018-07-07T11:44:06.262Z,1.93
2018-07-07T11:48:10.064Z,1.43
2018-07-07T11:52:13.727Z,1.93
2018-07-07T11:56:17.258Z,1.47
2018-07-07T12:00:23.240Z,1.73
2018-07-07T12:04:27.224Z,1.37
2018-07-07T12:08:30.870Z,1.60
2018-07-07T12:12:34.375Z,1.80
2018-07-07T12:16:38.174Z,1.70
2018-07-07T12:20:42.341Z,1.23
2018-07-07T12:24:46.013Z,1.53
2018-07-07T12:28:49.647Z,2.13
2018-07-07T12:32:53.219Z,1.57
2018-07-07T12:36:56.763Z,1.57
2018-07-07T12:41:00.512Z,1.40
2018-07-07T12:45:04.180Z,1.77
2018-07-07T12:49:08.025Z,1.90
2018-07-07T12:53:11.536Z,1.87
2018-07-07T12:57:15.304Z,1.50
2018-07-07T13:01:19.015Z,1.40
2018-07-07T13:05:22.725Z,1.33
2018-07-07T13:09:26.405Z,1.30
2018-07-07T13:13:29.928Z,1.53
2018-07-07T13:17:33.576Z,1.60
2018-07-07T13:21:37.121Z,1.53
2018-07-07T13:25:40.963Z,1.40
2018-07-07T13:29:44.817Z,1.77
2018-07-07T13:33:48.475Z,1.60
2018-07-07T13:37:52.046Z,1.37
2018-07-07T13:41:55.804Z,1.93
2018-07-07T13:45:59.567Z,1.43
2018-07-07T13:50:08.272Z,1.60
2018-07-07T13:54:11.880Z,2.43
2018-07-07T13:58:15.426Z,1.67
2018-07-07T14:02:18.979Z,1.67
2018-07-07T14:06:22.837Z,1.60
2018-07-07T14:10:26.632Z,2.57
2018-07-07T14:14:30.172Z,1.60
2018-07-07T14:18:33.736Z,1.70
2018-07-07T14:22:37.563Z,1.70
2018-07-07T14:26:41.406Z,1.40
2018-07-07T14:30:44.966Z,1.63
2018-07-07T14:34:48.772Z,1.27
2018-07-07T14:38:54.447Z,1.53
2018-07-07T14:42:58.219Z,1.17
2018-07-07T14:47:01.763Z,2.10
2018-07-07T14:51:05.332Z,1.47
2018-07-07T14:55:09.216Z,1.50
2018-07-07T14:59:14.404Z,1.80
2018-07-07T15:03:18.096Z,1.77
2018-07-07T15:07:21.987Z,1.27
2018-07-07T15:11:25.844Z,1.27
2018-07-07T15:15:29.499Z,2.10
2018-07-07T15:19:33.243Z,1.63
2018-07-07T15:23:36.911Z,1.80
2018-07-07T15:27:40.427Z,2.10
2018-07-07T15:31:44.169Z,1.63
2018-07-07T15:35:47.889Z,1.57
2018-07-07T15:39:51.513Z,1.83
2018-07-07T15:43:56.016Z,1.57
2018-07-07T15:47:59.940Z,1.30
2018-07-07T15:52:03.894Z,1.20
2018-07-07T15:56:07.576Z,2.07
2018-07-07T16:00:12.593Z,1.30
2018-07-07T16:04:16.213Z,1.27
2018-07-07T16:08:19.735Z,1.47
2018-07-07T16:12:23.295Z,1.50
2018-07-07T16:16:26.832Z,1.27
2018-07-07T16:20:30.591Z,1.33
2018-07-07T16:24:34.515Z,1.23
2018-07-07T16:28:38.168Z,1.93
2018-07-07T16:32:41.908Z,1.43
2018-07-07T16:36:45.883Z,2.03
2018-07-07T16:40:49.904Z,1.60
2018-07-07T16:44:53.576Z,1.73
2018-07-07T16:48:57.143Z,1.77
2018-07-07T16:53:00.972Z,1.90
2018-07-07T16:57:04.708Z,2.37
2018-07-07T17:01:08.513Z,1.40
2018-07-07T17:05:12.392Z,1.90
2018-07-07T17:09:16.059Z,1.83
2018-07-07T17:13:19.988Z,2.00
2018-07-07T17:17:23.672Z,1.67
2018-07-07T17:21:27.743Z,1.60
2018-07-07T17:25:31.384Z,1.43
2018-07-07T17:29:34.986Z,2.30
2018-07-07T17:33:39.311Z,1.40
2018-07-07T17:37:42.980Z,1.70
2018-07-07T17:41:46.825Z,2.03
2018-07-07T17:45:51.188Z,1.60
2018-07-07T17:49:54.972Z,1.60
2018-07-07T17:53:59.632Z,1.53
2018-07-07T17:58:03.697Z,1.83
2018-07-07T18:02:07.660Z,1.90
2018-07-07T18:06:11.307Z,2.13
2018-07-07T18:10:14.908Z,1.47
2018-07-07T18:14:18.685Z,1.87
2018-07-07T18:18:22.618Z,2.10
2018-07-07T18:22:26.384Z,2.23
2018-07-07T18:26:30.304Z,2.63
2018-07-07T18:30:34.123Z,2.57
2018-07-07T18:34:37.765Z,2.17
2018-07-07T18:38:41.316Z,2.23
2018-07-07T18:42:45.120Z,2.30
2018-07-07T18:46:49.328Z,2.10
2018-07-07T18:50:53.024Z,2.20
2018-07-07T18:54:56.572Z,2.23
2018-07-07T18:59:00.344Z,2.50
2018-07-07T19:03:04.048Z,1.73
2018-07-07T19:07:07.591Z,1.67
2018-07-07T19:11:11.407Z,1.87
2018-07-07T19:15:21.189Z,1.70
2018-07-07T19:19:24.912Z,1.83
2018-07-07T19:23:34.284Z,1.77
2018-07-07T19:27:37.967Z,2.90
2018-07-07T19:31:47.248Z,2.07
2018-07-07T19:35:56.352Z,1.63
2018-07-07T19:40:00.220Z,2.20
2018-07-07T19:44:03.877Z,2.07
2018-07-07T19:48:07.665Z,2.10
2018-07-07T19:52:11.329Z,1.67
2018-07-07T19:56:14.863Z,1.70
2018-07-07T20:00:18.657Z,2.17
2018-07-07T20:04:22.795Z,2.27
2018-07-07T20:08:26.463Z,1.73
2018-07-07T20:12:30.016Z,2.47
2018-07-07T20:16:45.128Z,1.80
2018-07-07T20:21:54.376Z,1.97
2018-07-07T20:26:02.546Z,2.00
2018-07-07T20:30:06.221Z,1.80
2018-07-07T20:34:09.758Z,1.73
2018-07-07T20:38:13.334Z,1.93
2018-07-07T20:42:17.116Z,1.80
2018-07-07T20:46:21.036Z,2.20
2018-07-07T20:50:24.917Z,2.10
2018-07-07T20:54:28.801Z,2.60
2018-07-07T20:58:32.480Z,1.97
2018-07-07T21:02:36.277Z,2.20
2018-07-07T21:06:40.179Z,1.90
2018-07-07T21:10:44.072Z,1.80
2018-07-07T21:14:47.735Z,2.30
2018-07-07T21:18:51.301Z,2.10
2018-07-07T21:22:55.073Z,2.03
2018-07-07T21:26:58.892Z,2.40
2018-07-07T21:31:02.649Z,2.37
2018-07-07T21:35:06.340Z,2.43
2018-07-07T21:39:10.107Z,1.83
2018-07-07T21:43:13.992Z,2.30
2018-07-07T21:47:17.920Z,2.50
2018-07-07T21:51:24.653Z,2.37
2018-07-07T21:55:28.976Z,2.50
2018-07-07T21:59:32.728Z,2.80
2018-07-07T22:03:41.892Z,3.00
2018-07-07T22:07:45.440Z,2.50
2018-07-07T22:11:48.975Z,2.67
2018-07-07T22:15:52.761Z,2.43
2018-07-07T22:19:56.444Z,2.90
2018-07-07T22:23:59.988Z,3.37
2018-07-07T22:28:03.744Z,3.47
2018-07-07T22:32:12.943Z,2.50
2018-07-07T22:36:21.929Z,2.73
2018-07-07T22:40:25.688Z,3.67
2018-07-07T22:44:29.894Z,2.90
2018-07-07T22:48:33.892Z,3.00
2018-07-07T22:52:37.529Z,3.37
2018-07-07T22:56:41.864Z,2.53
2018-07-07T23:00:45.536Z,3.80
2018-07-07T23:04:49.279Z,2.60
2018-07-07T23:08:53.160Z,2.57
2018-07-07T23:12:56.844Z,2.90
2018-07-07T23:17:01.292Z,2.90
2018-07-07T23:21:04.835Z,2.97
2018-07-07T23:25:08.589Z,2.13
2018-07-07T23:29:12.241Z,2.77
2018-07-07T23:33:16.375Z,2.70
2018-07-07T23:37:20.136Z,3.10
2018-07-07T23:41:23.835Z,1.00
2018-07-07T23:45:27.499Z,1.40
2018-07-07T23:49:31.237Z,1.93
2018-07-07T23:53:35.144Z,1.60
2018-07-07T23:57:38.797Z,1.80
